Terminal Aerodrome Forecast
Issued by NWS Brownsville, TX

Home | Current Version | Previous Version | Text Only | Print | Product List | Glossary On
Versions: 1 2 3 4 5 6 7 8 9 10 11 12 13 14
000
FTUS44 KBRO 220528
TAFMFE
TAF
KMFE 220528Z 2206/2306 14008KT P6SM SCT020 BKN250
      TEMPO 2206/2210 BKN020
     FM221500 14015G23KT P6SM SCT035 BKN060
     FM230200 12012KT P6SM FEW070=

USA.gov is the U.S. government's official web portal to all federal, state and local government web resources and services.